Time;durP1;ratioP1;P1;durP2;ratioP2;P2;SDS_P1;SDS_P2;PMS_P1;PMS_P2;Temp;Humidity;BMP_temperature;BMP_pressure;BME280_temperature;BME280_humidity;BME280_pressure;Samples;Min_cycle;Max_cycle;Signal;HPM_P1;HPM_P2
2022/06/29 00:00:12;;;;;;;2.63;1.33;;;19.70;99.90;;;;;;5019361;28;20611;-83
2022/06/29 00:02:39;;;;;;;3.10;1.40;;;19.70;99.90;;;;;;5020230;28;20514;-83
2022/06/29 00:05:07;;;;;;;6.30;1.97;;;19.70;99.90;;;;;;5019467;28;20464;-83
2022/06/29 00:07:34;;;;;;;3.27;1.73;;;19.60;99.90;;;;;;5020838;28;20463;-83
2022/06/29 00:10:04;;;;;;;4.10;2.13;;;19.60;99.90;;;;;;5020476;28;20566;-82
2022/06/29 00:12:31;;;;;;;4.10;1.93;;;19.60;99.90;;;;;;5021315;28;20557;-82
2022/06/29 00:15:02;;;;;;;10.43;2.73;;;19.60;99.90;;;;;;5019638;28;20466;-82
2022/06/29 00:17:30;;;;;;;3.70;1.60;;;19.70;99.90;;;;;;5021027;28;21020;-83
2022/06/29 00:19:57;;;;;;;2.93;1.40;;;19.60;99.90;;;;;;5021120;28;20457;-83
2022/06/29 00:22:24;;;;;;;3.50;1.70;;;19.50;99.90;;;;;;5034120;28;20627;-83
2022/06/29 00:24:51;;;;;;;3.60;1.77;;;19.50;99.90;;;;;;5057641;22;20951;-82
2022/06/29 00:27:19;;;;;;;3.07;1.60;;;19.50;99.90;;;;;;5020821;28;20468;-84
2022/06/29 00:29:46;;;;;;;4.07;1.60;;;19.60;99.90;;;;;;5021219;28;20553;-86
2022/06/29 00:32:17;;;;;;;5.83;1.40;;;19.60;99.90;;;;;;5020748;28;20507;-83
2022/06/29 00:34:44;;;;;;;4.00;1.57;;;19.50;99.90;;;;;;5035512;22;20500;-83
2022/06/29 00:37:19;;;;;;;4.70;1.70;;;19.50;99.90;;;;;;5044951;28;20466;-82
2022/06/29 00:39:46;;;;;;;3.40;1.77;;;19.50;99.90;;;;;;5042975;28;20457;-85
2022/06/29 00:42:13;;;;;;;3.50;1.60;;;19.40;99.90;;;;;;5033903;28;20930;-86
2022/06/29 00:44:41;;;;;;;3.50;1.40;;;19.40;99.90;;;;;;5039620;28;20481;-85
2022/06/29 00:47:08;;;;;;;2.73;1.30;;;19.40;99.90;;;;;;5031753;28;20479;-85
2022/06/29 00:49:36;;;;;;;3.30;1.43;;;19.40;99.90;;;;;;5023998;28;20524;-85
2022/06/29 00:52:05;;;;;;;3.00;1.37;;;19.30;99.90;;;;;;5023273;28;20480;-85
2022/06/29 00:54:36;;;;;;;4.07;1.70;;;19.30;99.90;;;;;;5024330;28;20504;-85
2022/06/29 00:57:07;;;;;;;4.20;1.23;;;19.20;99.90;;;;;;5029300;28;20429;-85
2022/06/29 00:59:38;;;;;;;4.07;1.30;;;19.20;99.90;;;;;;5030127;28;20531;-83
2022/06/29 01:02:07;;;;;;;4.00;1.77;;;19.20;99.90;;;;;;5027905;28;20528;-84
2022/06/29 01:04:34;;;;;;;6.83;1.63;;;19.10;99.90;;;;;;5013821;28;20543;-84
2022/06/29 01:07:01;;;;;;;5.90;1.70;;;19.10;99.90;;;;;;5016449;28;20999;-84
2022/06/29 01:09:27;;;;;;;5.20;1.73;;;19.10;99.90;;;;;;5016311;28;20980;-83
2022/06/29 01:11:54;;;;;;;3.50;1.60;;;19.00;99.90;;;;;;5016055;28;20533;-85
2022/06/29 01:14:21;;;;;;;3.20;1.80;;;19.00;99.90;;;;;;5014946;28;20568;-82
2022/06/29 01:16:48;;;;;;;3.30;1.80;;;18.90;99.90;;;;;;5014052;28;20464;-84
2022/06/29 01:19:16;;;;;;;4.53;1.50;;;18.90;99.90;;;;;;5014452;28;20544;-83
2022/06/29 01:21:46;;;;;;;3.00;1.60;;;18.90;99.90;;;;;;5014576;28;20580;-84
2022/06/29 01:24:14;;;;;;;3.77;1.67;;;18.80;99.90;;;;;;5013573;28;20908;-83
2022/06/29 01:26:41;;;;;;;4.10;1.70;;;18.80;99.90;;;;;;5014008;28;20754;-84
2022/06/29 01:29:08;;;;;;;4.30;1.70;;;18.80;99.90;;;;;;5014136;28;20551;-84
2022/06/29 01:31:35;;;;;;;3.50;1.57;;;18.80;99.90;;;;;;5014299;28;20578;-84
2022/06/29 01:34:02;;;;;;;3.90;2.00;;;18.80;99.90;;;;;;5014169;28;20532;-84
2022/06/29 01:36:29;;;;;;;5.07;1.50;;;18.80;99.90;;;;;;5013696;28;20535;-85
2022/06/29 01:38:56;;;;;;;5.13;1.80;;;18.80;99.90;;;;;;5014491;28;20548;-85
2022/06/29 01:41:24;;;;;;;3.60;1.50;;;18.80;99.90;;;;;;5014316;28;20485;-85
2022/06/29 01:43:51;;;;;;;3.70;1.70;;;18.80;99.90;;;;;;5016182;28;20488;-85
2022/06/29 01:46:18;;;;;;;4.47;1.80;;;18.80;99.90;;;;;;5016215;28;20469;-84
2022/06/29 01:48:45;;;;;;;3.83;1.80;;;18.80;99.90;;;;;;5014230;28;20462;-86
2022/06/29 01:51:12;;;;;;;4.57;1.40;;;18.80;99.90;;;;;;5014850;28;20535;-83
2022/06/29 01:53:39;;;;;;;4.40;1.57;;;18.80;99.90;;;;;;5013666;28;20460;-84
2022/06/29 01:56:06;;;;;;;3.23;1.50;;;18.80;99.90;;;;;;5014226;28;20500;-84
2022/06/29 01:58:34;;;;;;;4.33;1.63;;;18.80;99.90;;;;;;5014007;28;20515;-84
2022/06/29 02:01:01;;;;;;;3.60;1.60;;;18.80;99.90;;;;;;5013877;28;20937;-84
2022/06/29 02:03:28;;;;;;;3.60;1.83;;;18.80;99.90;;;;;;5015005;28;20457;-84
2022/06/29 02:05:55;;;;;;;3.33;1.50;;;18.80;99.90;;;;;;5012952;28;20875;-84
2022/06/29 02:08:22;;;;;;;4.00;1.80;;;18.80;99.90;;;;;;5013590;28;20563;-82
2022/06/29 02:10:49;;;;;;;3.73;1.77;;;18.80;99.90;;;;;;5015372;28;20524;-84
2022/06/29 02:13:16;;;;;;;4.70;1.50;;;18.80;99.90;;;;;;5012572;28;20534;-84
2022/06/29 02:15:44;;;;;;;3.70;1.67;;;18.80;99.90;;;;;;5013678;28;20481;-84
2022/06/29 02:18:11;;;;;;;3.60;1.90;;;18.80;99.90;;;;;;5013723;28;20489;-85
2022/06/29 02:20:38;;;;;;;4.80;1.80;;;18.80;99.90;;;;;;5014397;28;20976;-84
2022/06/29 02:23:05;;;;;;;3.53;1.83;;;18.80;99.90;;;;;;5012901;28;20559;-84
2022/06/29 02:25:32;;;;;;;3.90;1.83;;;18.80;99.90;;;;;;5012141;28;20496;-83
2022/06/29 02:27:58;;;;;;;4.63;2.23;;;18.70;99.90;;;;;;5014837;28;20462;-85
2022/06/29 02:34:43;;;;;;;3.23;1.87;;;18.70;99.90;;;;;;5018401;28;20485;-86
2022/06/29 02:36:04;;;;;;;3.63;1.90;;;18.70;99.90;;;;;;5018314;28;20481;-85
2022/06/29 02:38:31;;;;;;;3.70;2.00;;;18.70;99.90;;;;;;5016689;28;20532;-84
2022/06/29 02:40:58;;;;;;;6.33;1.63;;;18.70;99.90;;;;;;5017783;28;20543;-84
2022/06/29 02:43:25;;;;;;;4.97;1.80;;;18.70;99.90;;;;;;5019084;28;20563;-85
2022/06/29 02:45:52;;;;;;;3.10;2.20;;;18.70;99.90;;;;;;5019276;28;20932;-86
2022/06/29 02:48:20;;;;;;;2.77;1.57;;;18.60;99.90;;;;;;5020025;28;20520;-82
2022/06/29 02:50:47;;;;;;;12.43;2.20;;;18.60;99.90;;;;;;5021556;28;20488;-85
2022/06/29 02:53:14;;;;;;;2.77;1.60;;;18.60;99.90;;;;;;5025084;28;20525;-86
2022/06/29 02:55:41;;;;;;;3.20;1.70;;;18.60;99.90;;;;;;5025874;28;20557;-86
2022/06/29 02:58:08;;;;;;;5.27;2.27;;;18.60;99.90;;;;;;5020506;28;20876;-86
2022/06/29 03:00:34;;;;;;;3.90;1.97;;;18.60;99.90;;;;;;5022577;28;20547;-86
2022/06/29 03:03:01;;;;;;;5.00;1.67;;;18.60;99.90;;;;;;5019927;28;20591;-86
2022/06/29 03:05:29;;;;;;;3.87;1.43;;;18.60;99.90;;;;;;5021349;28;20870;-85
2022/06/29 03:07:56;;;;;;;6.33;1.67;;;18.60;99.90;;;;;;5020197;28;20544;-86
2022/06/29 03:10:23;;;;;;;3.20;1.67;;;18.60;99.90;;;;;;5020411;28;20540;-85
2022/06/29 03:12:50;;;;;;;4.90;1.77;;;18.60;99.90;;;;;;5020214;28;20469;-86
2022/06/29 03:15:18;;;;;;;3.50;1.63;;;18.60;99.90;;;;;;5020296;28;20553;-84
2022/06/29 03:17:44;;;;;;;3.33;1.60;;;18.60;99.90;;;;;;5019482;28;20575;-85
2022/06/29 03:20:13;;;;;;;3.87;1.80;;;18.60;99.90;;;;;;5019738;28;20862;-85
2022/06/29 03:22:43;;;;;;;5.00;3.17;;;18.60;99.90;;;;;;5019414;28;21163;-85
2022/06/29 03:25:11;;;;;;;3.40;1.60;;;18.60;99.90;;;;;;5017696;28;20481;-87
2022/06/29 03:27:37;;;;;;;3.40;2.00;;;18.60;99.90;;;;;;5021947;28;20822;-86
2022/06/29 03:30:05;;;;;;;4.53;1.70;;;18.60;99.90;;;;;;5020840;28;20491;-87
2022/06/29 03:32:32;;;;;;;3.80;1.60;;;18.50;99.90;;;;;;5019996;28;20458;-86
2022/06/29 03:34:59;;;;;;;3.40;1.87;;;18.50;99.90;;;;;;5018739;28;20935;-86
2022/06/29 03:37:26;;;;;;;4.40;1.70;;;18.50;99.90;;;;;;5020425;28;20996;-86
2022/06/29 03:39:54;;;;;;;6.63;2.20;;;18.50;99.90;;;;;;5020349;28;20459;-86
2022/06/29 03:42:21;;;;;;;3.40;2.00;;;18.40;99.90;;;;;;5015280;28;20570;-87
2022/06/29 03:44:48;;;;;;;6.90;2.23;;;18.40;99.90;;;;;;5019832;28;20533;-85
2022/06/29 03:47:15;;;;;;;3.70;1.83;;;18.40;99.90;;;;;;5019235;28;20869;-85
2022/06/29 03:49:42;;;;;;;3.67;1.60;;;18.40;99.90;;;;;;5025538;28;20559;-82
2022/06/29 03:52:09;;;;;;;5.30;1.83;;;18.30;99.90;;;;;;5029746;28;20450;-82
2022/06/29 03:54:36;;;;;;;4.03;2.10;;;18.30;99.90;;;;;;5028480;28;20927;-82
2022/06/29 03:57:05;;;;;;;3.80;2.00;;;18.30;99.90;;;;;;5029967;28;20502;-81
2022/06/29 03:59:32;;;;;;;3.60;1.90;;;18.30;99.90;;;;;;5030587;28;20460;-83
2022/06/29 04:01:59;;;;;;;3.63;1.77;;;18.30;99.90;;;;;;5029216;28;21085;-82
2022/06/29 04:04:26;;;;;;;3.70;2.00;;;18.30;99.90;;;;;;5031079;28;20483;-80
2022/06/29 04:06:53;;;;;;;6.57;2.17;;;18.20;99.90;;;;;;5031957;28;20451;-82
2022/06/29 04:09:20;;;;;;;4.57;1.90;;;18.20;99.90;;;;;;5029116;28;20478;-87
2022/06/29 04:11:56;;;;;;;3.73;1.80;;;18.20;99.90;;;;;;5030831;28;20490;-82
2022/06/29 04:14:26;;;;;;;3.53;2.37;;;18.30;99.90;;;;;;5036356;28;20470;-81
2022/06/29 04:16:53;;;;;;;4.40;2.20;;;18.30;99.90;;;;;;5036825;28;20450;-84
2022/06/29 04:19:21;;;;;;;4.20;2.27;;;18.30;99.90;;;;;;5033381;28;20444;-84
2022/06/29 04:21:48;;;;;;;4.40;2.37;;;18.30;99.90;;;;;;5033012;28;20484;-83
2022/06/29 04:27:36;;;;;;;3.57;2.33;;;18.40;99.90;;;;;;5036398;28;20463;-83
2022/06/29 04:30:08;;;;;;;4.47;1.90;;;18.40;99.90;;;;;;4993755;28;20460;-79
2022/06/29 04:32:35;;;;;;;3.20;2.07;;;18.50;99.90;;;;;;5035378;28;20547;-85
2022/06/29 04:35:06;;;;;;;3.47;2.10;;;18.50;99.90;;;;;;5034292;28;20555;-81
2022/06/29 04:47:35;;;;;;;3.17;1.67;;;18.70;99.90;;;;;;4862252;29;20498;-82
2022/06/29 04:53:22;;;;;;;3.97;1.93;;;18.80;99.90;;;;;;4980084;28;20445;-83
2022/06/29 04:55:48;;;;;;;4.70;2.03;;;18.80;99.90;;;;;;5034368;28;20493;-83
2022/06/29 04:58:17;;;;;;;3.47;1.80;;;18.90;99.90;;;;;;5033763;28;20848;-82
2022/06/29 05:00:44;;;;;;;3.40;1.70;;;18.90;99.90;;;;;;5032489;28;20487;-83
2022/06/29 05:03:13;;;;;;;4.23;2.17;;;19.00;99.90;;;;;;5028599;28;20513;-84
2022/06/29 05:05:40;;;;;;;5.50;2.43;;;19.00;99.90;;;;;;5026441;28;20479;-84
2022/06/29 05:08:07;;;;;;;3.37;1.90;;;19.10;99.90;;;;;;5030013;28;20468;-83
2022/06/29 05:10:35;;;;;;;4.90;2.83;;;19.10;99.90;;;;;;5030635;28;20453;-81
2022/06/29 05:13:08;;;;;;;4.50;2.30;;;19.10;99.90;;;;;;5030161;28;20450;-80
2022/06/29 05:15:35;;;;;;;2.70;1.70;;;19.10;99.90;;;;;;5033187;28;20486;-80
2022/06/29 05:18:02;;;;;;;4.23;1.70;;;19.10;99.90;;;;;;5031783;28;20484;-80
2022/06/29 05:20:31;;;;;;;3.20;1.90;;;19.20;99.90;;;;;;5030234;28;20468;-81
2022/06/29 05:22:58;;;;;;;3.57;1.73;;;19.30;99.90;;;;;;5032952;28;20523;-81
2022/06/29 05:25:28;;;;;;;2.67;1.83;;;19.30;99.90;;;;;;5033492;28;20534;-81
2022/06/29 05:28:01;;;;;;;4.40;1.63;;;19.30;99.90;;;;;;5036243;28;20512;-81
2022/06/29 05:33:56;;;;;;;;;;;;;;;;;;;;;
2022/06/29 05:44:16;;;;;;;;;;;;;;;;;;;;;
2022/06/29 05:46:45;;;;;;;4.90;2.27;;;20.00;99.90;;;;;;5030302;28;20907;-85
2022/06/29 05:49:17;;;;;;;3.13;1.90;;;19.90;99.90;;;;;;5025899;28;20481;-79
2022/06/29 05:51:58;;;;;;;2.97;1.70;;;20.00;99.90;;;;;;5023165;28;20517;-79
2022/06/29 05:54:27;;;;;;;3.00;1.90;;;20.10;99.90;;;;;;5022117;28;20501;-79
2022/06/29 05:57:39;;;;;;;;;;;;;;;;;;;;;
2022/06/29 06:03:24;;;;;;;5.90;2.10;;;20.30;99.90;;;;;;4964752;28;20562;-79
2022/06/29 06:12:22;;;;;;;5.30;2.13;;;20.40;99.90;;;;;;4730325;29;20555;-81
2022/06/29 06:15:09;;;;;;;4.63;1.70;;;20.40;99.90;;;;;;4945615;29;20504;-79
2022/06/29 06:21:04;;;;;;;;;;;;;;;;;;;;;
2022/06/29 06:23:47;;;;;;;5.93;2.60;;;20.60;99.90;;;;;;5027284;28;20515;-81
2022/06/29 06:32:38;;;;;;;4.50;1.80;;;21.10;99.90;;;;;;4870548;29;20466;-80
2022/06/29 06:35:21;;;;;;;4.30;2.27;;;21.30;99.90;;;;;;4945249;29;20525;-79
2022/06/29 06:42:08;;;;;;;5.27;2.77;;;21.50;99.90;;;;;;4878986;29;20447;-81
2022/06/29 06:47:12;;;;;;;6.93;2.80;;;21.70;99.90;;;;;;5012368;28;20476;-80
2022/06/29 06:49:39;;;;;;;5.33;2.23;;;21.80;99.90;;;;;;5021554;28;20477;-82
2022/06/29 06:52:07;;;;;;;6.43;2.83;;;21.90;99.90;;;;;;5020419;28;20449;-83
2022/06/29 06:54:33;;;;;;;4.03;1.97;;;21.90;99.90;;;;;;5017872;28;20484;-82
2022/06/29 06:57:02;;;;;;;7.63;2.57;;;22.00;99.90;;;;;;5021305;28;20479;-83
2022/06/29 06:59:29;;;;;;;5.77;2.20;;;22.00;99.90;;;;;;5021040;28;20520;-81
2022/06/29 07:01:58;;;;;;;6.10;2.30;;;22.20;99.90;;;;;;5026211;28;20457;-79
2022/06/29 07:04:31;;;;;;;3.53;1.90;;;22.20;99.90;;;;;;5028313;28;20866;-83
2022/06/29 07:06:58;;;;;;;3.50;1.90;;;22.20;99.90;;;;;;5016057;28;20489;-79
2022/06/29 07:09:28;;;;;;;6.10;2.20;;;22.20;99.90;;;;;;5035268;28;21234;-81
2022/06/29 07:11:56;;;;;;;3.83;1.90;;;22.20;99.90;;;;;;5039373;28;20476;-80
2022/06/29 07:14:23;;;;;;;5.83;2.30;;;22.30;99.90;;;;;;5033587;28;20526;-81
2022/06/29 07:16:50;;;;;;;4.80;1.67;;;22.30;99.90;;;;;;5024186;28;20453;-79
2022/06/29 07:19:17;;;;;;;5.83;2.17;;;22.30;99.90;;;;;;5027277;28;20478;-81
2022/06/29 07:21:58;;;;;;;;;;;;;;;;;;;;;
2022/06/29 07:27:28;;;;;;;4.97;2.10;;;22.30;99.90;;;;;;4999799;28;20465;-83
2022/06/29 07:29:57;;;;;;;3.87;1.80;;;22.40;99.90;;;;;;5023864;28;20544;-79
2022/06/29 07:32:24;;;;;;;5.07;1.87;;;22.40;99.90;;;;;;5028360;28;20481;-83
2022/06/29 07:34:54;;;;;;;7.10;2.27;;;22.40;99.90;;;;;;5027517;28;20465;-79
2022/06/29 07:37:28;;;;;;;2.90;1.70;;;22.40;99.90;;;;;;5026241;28;20441;-80
2022/06/29 07:39:55;;;;;;;6.20;2.10;;;22.40;99.90;;;;;;5022515;28;20448;-79
2022/06/29 07:42:21;;;;;;;4.80;2.13;;;22.40;99.90;;;;;;5020481;28;20501;-79
2022/06/29 07:44:48;;;;;;;7.87;2.80;;;22.30;99.90;;;;;;5020762;28;20473;-80
2022/06/29 07:47:15;;;;;;;5.30;2.50;;;22.40;99.90;;;;;;5016752;28;20485;-82
2022/06/29 07:49:42;;;;;;;6.07;2.50;;;22.40;99.90;;;;;;5031933;28;20517;-80
2022/06/29 07:52:09;;;;;;;6.00;2.30;;;22.40;99.90;;;;;;5027871;28;20485;-81
2022/06/29 08:01:06;;;;;;;4.73;2.00;;;22.40;99.90;;;;;;4859989;28;20464;-81
2022/06/29 08:03:35;;;;;;;5.33;1.90;;;22.40;99.90;;;;;;5025543;28;20500;-80
2022/06/29 08:06:05;;;;;;;4.30;2.20;;;22.50;99.90;;;;;;5032564;28;20486;-82
2022/06/29 08:08:32;;;;;;;9.67;2.70;;;22.50;99.90;;;;;;5047733;28;20448;-81
2022/06/29 08:11:07;;;;;;;6.70;2.40;;;22.60;99.90;;;;;;5026703;28;20824;-81
2022/06/29 08:13:38;;;;;;;9.70;2.27;;;22.60;99.90;;;;;;5024359;28;20453;-80
2022/06/29 08:16:10;;;;;;;4.43;2.20;;;22.70;99.90;;;;;;5023023;28;21065;-78
2022/06/29 08:18:38;;;;;;;4.80;2.10;;;22.70;99.90;;;;;;5022610;28;20461;-79
2022/06/29 08:21:05;;;;;;;11.10;2.87;;;22.70;99.90;;;;;;5021934;28;20489;-80
2022/06/29 08:23:34;;;;;;;6.13;2.20;;;22.80;99.90;;;;;;5019849;28;20499;-81
2022/06/29 08:26:02;;;;;;;4.80;2.10;;;22.80;99.90;;;;;;5036549;28;20526;-80
2022/06/29 08:28:29;;;;;;;7.83;2.43;;;22.80;99.90;;;;;;5021708;28;20472;-81
2022/06/29 08:30:59;;;;;;;5.60;2.20;;;22.90;99.90;;;;;;5020409;28;20500;-79
2022/06/29 08:33:28;;;;;;;4.77;2.07;;;22.90;99.90;;;;;;5018425;28;20509;-80
2022/06/29 08:36:01;;;;;;;4.90;2.10;;;22.90;99.90;;;;;;5018203;28;20466;-78
2022/06/29 08:38:34;;;;;;;4.47;2.13;;;22.90;99.90;;;;;;5020572;28;20457;-78
2022/06/29 08:41:11;;;;;;;7.40;2.70;;;22.80;99.90;;;;;;5019928;28;20462;-79
2022/06/29 08:43:38;;;;;;;7.63;1.90;;;22.90;99.90;;;;;;5013750;28;20861;-80
2022/06/29 08:46:05;;;;;;;6.43;2.40;;;22.90;99.90;;;;;;5023650;28;20473;-80
2022/06/29 08:48:32;;;;;;;6.37;2.17;;;22.90;99.90;;;;;;5025977;28;20480;-80
2022/06/29 08:51:00;;;;;;;4.93;2.80;;;22.90;99.90;;;;;;5020208;28;20454;-80
2022/06/29 08:53:27;;;;;;;4.50;2.30;;;22.90;99.90;;;;;;5020935;28;20454;-80
2022/06/29 08:55:55;;;;;;;6.20;2.47;;;22.80;99.90;;;;;;5021428;28;20508;-82
2022/06/29 08:58:26;;;;;;;4.40;2.20;;;22.80;99.90;;;;;;5024411;28;20476;-80
2022/06/29 09:00:55;;;;;;;4.37;2.50;;;22.80;99.90;;;;;;5022621;28;20454;-80
2022/06/29 09:03:23;;;;;;;7.33;2.70;;;22.80;99.90;;;;;;5019397;28;20553;-81
2022/06/29 09:05:57;;;;;;;7.90;2.23;;;22.80;99.90;;;;;;5017785;28;20473;-82
2022/06/29 09:08:26;;;;;;;5.33;2.33;;;22.70;99.90;;;;;;5026567;28;21026;-82
2022/06/29 09:10:52;;;;;;;6.00;2.17;;;22.80;99.90;;;;;;5025809;28;20477;-82
2022/06/29 09:13:20;;;;;;;8.23;2.57;;;22.80;99.90;;;;;;5021682;28;20441;-79
2022/06/29 09:15:58;;;;;;;7.17;2.87;;;22.80;99.90;;;;;;5018883;28;20495;-82
2022/06/29 09:18:27;;;;;;;6.60;2.27;;;22.80;99.90;;;;;;5019854;28;20965;-81
2022/06/29 09:20:55;;;;;;;6.80;2.60;;;22.90;99.90;;;;;;5015742;28;20489;-80
2022/06/29 09:23:22;;;;;;;9.60;2.30;;;22.90;99.90;;;;;;5019742;28;20478;-82
2022/06/29 09:25:49;;;;;;;6.53;2.50;;;23.00;99.90;;;;;;5018959;28;20472;-82
2022/06/29 09:28:20;;;;;;;7.33;2.50;;;23.00;99.90;;;;;;5019196;28;20430;-82
2022/06/29 09:30:48;;;;;;;8.27;2.80;;;23.10;99.90;;;;;;5020065;28;20448;-79
2022/06/29 09:33:15;;;;;;;4.03;2.20;;;23.10;99.90;;;;;;5023864;28;20501;-82
2022/06/29 09:35:43;;;;;;;5.30;2.23;;;23.10;99.90;;;;;;5021172;28;20466;-83
2022/06/29 09:38:22;;;;;;;5.17;2.53;;;23.10;99.90;;;;;;5019953;28;20453;-80
2022/06/29 09:41:06;;;;;;;5.30;2.80;;;23.00;99.90;;;;;;5022929;28;20456;-83
2022/06/29 09:43:42;;;;;;;7.13;2.83;;;23.00;99.90;;;;;;5022914;28;20482;-82
2022/06/29 09:46:12;;;;;;;4.90;2.27;;;23.00;99.90;;;;;;5024918;28;20474;-83
2022/06/29 09:48:40;;;;;;;4.80;2.53;;;22.90;99.90;;;;;;5023364;28;20450;-82
2022/06/29 09:54:03;;;;;;;8.03;2.57;;;23.00;99.90;;;;;;5005117;28;20500;-80
2022/06/29 09:56:31;;;;;;;7.30;2.50;;;23.00;99.90;;;;;;5021142;28;20433;-80
2022/06/29 09:58:59;;;;;;;4.67;2.30;;;23.10;99.90;;;;;;5018593;28;20466;-80
2022/06/29 10:04:26;;;;;;;;;;;;;;;;;;;;;
2022/06/29 11:21:03;;;;;;;8.10;3.10;;;24.70;99.90;;;;;;4991132;28;20456;-79
2022/06/29 11:23:31;;;;;;;6.40;2.70;;;24.80;99.90;;;;;;5008343;28;20494;-82
2022/06/29 11:25:59;;;;;;;5.77;2.67;;;24.90;99.90;;;;;;5027721;28;20486;-83
2022/06/29 11:28:27;;;;;;;6.23;2.70;;;24.90;99.90;;;;;;5027585;28;21112;-81
2022/06/29 11:31:00;;;;;;;11.40;3.40;;;25.00;99.90;;;;;;5027011;28;20446;-81
2022/06/29 11:33:28;;;;;;;6.03;2.60;;;24.90;99.90;;;;;;5021165;28;20509;-80
2022/06/29 11:35:55;;;;;;;6.50;2.87;;;25.00;99.90;;;;;;5016261;28;20481;-81
2022/06/29 11:38:28;;;;;;;7.17;3.10;;;25.10;99.90;;;;;;5014266;28;20541;-79
2022/06/29 11:40:55;;;;;;;6.63;2.90;;;25.00;99.90;;;;;;5021533;28;20521;-80
2022/06/29 11:43:22;;;;;;;6.83;2.70;;;24.80;99.90;;;;;;5020704;28;20580;-81
2022/06/29 11:45:51;;;;;;;13.60;3.53;;;25.00;99.90;;;;;;5025223;28;20449;-79
2022/06/29 11:48:19;;;;;;;5.10;2.90;;;25.10;99.90;;;;;;5028588;28;20525;-82
2022/06/29 11:50:49;;;;;;;5.77;2.77;;;25.20;99.90;;;;;;5023702;28;20477;-80
2022/06/29 11:53:39;;;;;;;10.63;3.20;;;25.10;99.90;;;;;;5029797;28;20892;-82
2022/06/29 11:56:11;;;;;;;4.27;2.83;;;25.10;99.90;;;;;;5032265;28;20477;-81
2022/06/29 11:58:43;;;;;;;5.20;2.50;;;25.10;99.90;;;;;;5040411;28;20432;-79
2022/06/29 12:01:13;;;;;;;3.93;2.20;;;25.00;99.90;;;;;;5026593;28;20461;-80
2022/06/29 12:03:47;;;;;;;6.57;3.27;;;25.00;99.90;;;;;;5023869;28;20495;-79
2022/06/29 12:06:15;;;;;;;5.50;3.03;;;25.00;99.90;;;;;;5026189;28;20472;-78
2022/06/29 12:08:44;;;;;;;8.60;3.33;;;24.90;99.90;;;;;;5029513;28;20539;-80
2022/06/29 12:11:11;;;;;;;5.77;3.23;;;24.90;99.90;;;;;;5038223;28;20451;-79
2022/06/29 12:13:41;;;;;;;6.70;2.97;;;24.70;99.90;;;;;;5021081;28;20474;-81
2022/06/29 12:16:11;;;;;;;8.50;3.53;;;24.80;99.90;;;;;;5027385;28;20496;-82
2022/06/29 12:18:38;;;;;;;8.13;3.80;;;24.60;99.90;;;;;;5018865;28;20544;-81
2022/06/29 12:21:07;;;;;;;6.00;3.13;;;24.50;99.90;;;;;;5016474;28;20454;-80
2022/06/29 12:23:34;;;;;;;7.67;3.30;;;24.60;99.90;;;;;;5015999;28;20535;-79
2022/06/29 12:26:03;;;;;;;10.03;3.53;;;24.60;99.90;;;;;;5018863;28;20490;-78
2022/06/29 12:28:33;;;;;;;5.53;3.43;;;24.60;99.90;;;;;;5018468;28;20516;-82
2022/06/29 12:31:11;;;;;;;5.00;3.30;;;24.70;99.90;;;;;;5009118;28;20472;-78
2022/06/29 12:33:38;;;;;;;4.40;2.57;;;24.70;99.90;;;;;;5025647;28;20985;-79
2022/06/29 12:36:05;;;;;;;7.47;3.33;;;24.70;99.90;;;;;;5025069;28;20458;-80
2022/06/29 12:38:38;;;;;;;4.57;3.07;;;24.70;99.90;;;;;;5016365;28;20508;-79
2022/06/29 12:41:08;;;;;;;7.57;3.17;;;24.80;99.90;;;;;;5021061;28;20968;-81
2022/06/29 12:43:38;;;;;;;6.30;3.07;;;24.90;99.90;;;;;;5024621;28;20490;-81
2022/06/29 12:46:06;;;;;;;8.90;3.50;;;24.80;99.90;;;;;;5013221;28;20464;-80
2022/06/29 12:48:33;;;;;;;7.20;3.53;;;24.90;99.90;;;;;;5014793;28;20561;-80
2022/06/29 12:51:02;;;;;;;6.00;3.13;;;24.90;99.90;;;;;;5013609;28;20493;-80
2022/06/29 12:53:29;;;;;;;7.07;3.33;;;24.90;99.90;;;;;;5020917;28;20480;-79
2022/06/29 12:55:56;;;;;;;3.87;2.63;;;25.00;99.90;;;;;;5019982;28;20537;-79
2022/06/29 12:58:25;;;;;;;6.50;2.90;;;25.00;99.90;;;;;;5016502;28;20488;-79
2022/06/29 13:00:52;;;;;;;6.13;2.80;;;25.20;99.90;;;;;;5025792;28;20445;-80
2022/06/29 13:03:19;;;;;;;4.20;2.50;;;25.30;99.90;;;;;;5014555;28;20469;-80
2022/06/29 13:05:46;;;;;;;4.17;2.43;;;25.50;99.90;;;;;;5026987;28;20483;-80
2022/06/29 13:08:13;;;;;;;4.60;2.60;;;25.80;99.90;;;;;;5035567;28;20500;-80
2022/06/29 13:10:40;;;;;;;4.60;2.17;;;26.00;99.90;;;;;;5027485;28;20459;-81
2022/06/29 13:13:07;;;;;;;8.33;2.23;;;26.10;99.90;;;;;;5027383;28;20463;-79
2022/06/29 13:15:35;;;;;;;4.47;2.40;;;26.10;99.90;;;;;;5026428;28;20484;-80
2022/06/29 13:18:04;;;;;;;5.90;2.67;;;26.00;99.90;;;;;;5016232;28;20533;-80
2022/06/29 13:20:31;;;;;;;6.40;3.00;;;26.00;99.90;;;;;;5014062;28;20492;-79
2022/06/29 13:22:57;;;;;;;6.37;2.77;;;26.00;99.90;;;;;;5015499;28;20442;-80
2022/06/29 13:25:24;;;;;;;5.47;2.67;;;26.10;99.90;;;;;;5017049;28;20556;-81
2022/06/29 13:27:51;;;;;;;11.73;4.10;;;26.10;99.90;;;;;;5014984;28;20454;-80
2022/06/29 13:30:18;;;;;;;8.17;3.50;;;26.10;99.90;;;;;;5013685;28;20536;-80
2022/06/29 13:32:46;;;;;;;9.37;2.90;;;26.10;99.90;;;;;;5025737;28;20547;-80
2022/06/29 13:35:13;;;;;;;4.40;2.90;;;26.20;99.90;;;;;;5033472;28;20889;-79
2022/06/29 13:37:43;;;;;;;3.40;2.40;;;26.30;99.90;;;;;;5017871;28;20543;-81
2022/06/29 13:40:11;;;;;;;4.23;2.40;;;26.60;99.90;;;;;;5015323;28;20503;-80
2022/06/29 13:42:38;;;;;;;4.37;2.90;;;26.80;99.90;;;;;;5007283;28;20552;-79
2022/06/29 13:45:06;;;;;;;4.73;2.70;;;26.80;99.90;;;;;;5014123;28;20490;-80
2022/06/29 13:47:33;;;;;;;6.80;3.07;;;26.90;99.90;;;;;;5020746;28;20497;-82
2022/06/29 13:50:01;;;;;;;5.67;3.10;;;27.20;99.90;;;;;;5012532;28;20553;-81
2022/06/29 13:52:28;;;;;;;8.00;3.00;;;27.70;99.90;;;;;;5031280;28;20552;-80
2022/06/29 13:54:55;;;;;;;6.40;2.63;;;28.40;99.90;;;;;;5012260;28;20559;-81
2022/06/29 13:57:22;;;;;;;3.50;2.20;;;28.90;99.90;;;;;;5020361;28;20449;-80
2022/06/29 13:59:49;;;;;;;3.80;2.23;;;29.10;99.90;;;;;;5026516;28;20461;-79
2022/06/29 14:02:16;;;;;;;4.20;2.40;;;29.60;99.90;;;;;;5017311;28;20450;-81
2022/06/29 14:04:43;;;;;;;4.97;3.57;;;30.50;99.90;;;;;;5013691;28;20576;-81
2022/06/29 14:07:11;;;;;;;4.63;2.37;;;31.50;99.90;;;;;;5030679;28;20902;-80
2022/06/29 14:09:38;;;;;;;5.70;2.90;;;32.10;99.90;;;;;;5027095;28;20485;-82
2022/06/29 14:12:05;;;;;;;3.70;2.30;;;31.90;99.90;;;;;;5014744;28;20526;-81
2022/06/29 14:14:33;;;;;;;4.73;2.90;;;32.20;99.90;;;;;;5021392;28;20979;-81
2022/06/29 14:17:00;;;;;;;5.63;2.83;;;32.60;99.90;;;;;;5020804;28;20549;-81
2022/06/29 14:19:26;;;;;;;3.87;2.87;;;32.80;99.90;;;;;;5014266;28;20485;-80
2022/06/29 14:21:53;;;;;;;3.90;2.50;;;32.60;99.90;;;;;;5014464;28;20552;-80
2022/06/29 14:24:21;;;;;;;4.90;2.97;;;32.10;99.90;;;;;;5012094;28;20584;-80
2022/06/29 14:26:48;;;;;;;4.70;3.07;;;31.50;99.90;;;;;;5014382;28;20571;-79
2022/06/29 14:29:15;;;;;;;4.57;3.10;;;31.20;99.90;;;;;;5010209;28;20553;-79
2022/06/29 14:31:42;;;;;;;3.87;2.97;;;31.10;99.90;;;;;;5021650;28;20454;-82
2022/06/29 14:34:09;;;;;;;3.87;2.70;;;31.00;99.90;;;;;;5007031;28;20506;-80
2022/06/29 14:36:36;;;;;;;6.40;3.03;;;30.90;99.90;;;;;;5018987;28;20549;-81
2022/06/29 14:39:06;;;;;;;4.30;2.50;;;30.90;99.90;;;;;;5018661;28;20548;-82
2022/06/29 14:41:41;;;;;;;3.57;2.00;;;31.30;99.90;;;;;;5010849;28;20884;-80
2022/06/29 14:44:08;;;;;;;3.57;2.43;;;31.90;99.90;;;;;;5019538;28;20488;-81
2022/06/29 14:46:35;;;;;;;3.10;2.20;;;32.60;99.90;;;;;;5013434;28;20453;-81
2022/06/29 14:49:02;;;;;;;3.70;2.10;;;32.70;99.90;;;;;;5026402;28;20491;-81
2022/06/29 14:51:29;;;;;;;3.67;2.50;;;32.40;99.90;;;;;;5025416;28;20548;-80
2022/06/29 14:53:56;;;;;;;3.80;2.90;;;32.20;99.90;;;;;;5024778;28;20599;-80
2022/06/29 14:56:23;;;;;;;3.80;2.50;;;31.80;99.90;;;;;;5023810;28;20540;-79
2022/06/29 14:58:51;;;;;;;3.90;2.57;;;31.50;99.90;;;;;;5034042;28;20551;-82
2022/06/29 15:01:20;;;;;;;3.80;2.97;;;31.10;99.90;;;;;;5020170;28;20545;-81
2022/06/29 15:03:51;;;;;;;4.63;2.90;;;30.70;99.90;;;;;;5011763;28;21036;-80
2022/06/29 15:06:21;;;;;;;5.00;2.97;;;30.40;99.90;;;;;;5013184;28;20980;-78
2022/06/29 15:08:50;;;;;;;4.03;2.67;;;30.10;99.90;;;;;;5013703;28;20477;-79
2022/06/29 15:11:22;;;;;;;3.90;2.70;;;29.80;99.90;;;;;;5013194;28;20853;-80
2022/06/29 15:13:50;;;;;;;4.50;2.63;;;29.60;99.90;;;;;;5011636;28;20473;-80
2022/06/29 15:16:19;;;;;;;4.13;2.90;;;29.40;99.90;;;;;;5013854;28;20459;-79
2022/06/29 15:18:46;;;;;;;4.40;3.40;;;29.40;99.90;;;;;;5013204;28;20873;-78
2022/06/29 15:21:14;;;;;;;4.10;3.27;;;29.30;99.90;;;;;;5012338;28;20557;-80
2022/06/29 15:23:40;;;;;;;5.90;3.17;;;29.30;99.90;;;;;;5010944;28;20565;-79
2022/06/29 15:26:07;;;;;;;6.77;3.47;;;29.20;99.90;;;;;;5012585;28;20568;-80